Time;durP1;ratioP1;P1;durP2;ratioP2;P2;SDS_P1;SDS_P2;PMS_P1;PMS_P2;Temp;Humidity;BMP_temperature;BMP_pressure;BME280_temperature;BME280_humidity;BME280_pressure;Samples;Min_cycle;Max_cycle;Signal;HPM_P1;HPM_P2
2024/01/17 00:00:54;;;;;;;;;;;;;;;4.14;66.00;99510.56;7300170;19;19941;-67
2024/01/17 00:03:21;;;;;;;;;;;;;;;4.20;66.38;99515.19;7300138;19;19918;-66
2024/01/17 00:05:48;;;;;;;;;;;;;;;4.23;66.11;99496.66;7285056;19;19929;-66
2024/01/17 00:08:15;;;;;;;;;;;;;;;4.27;66.16;99492.81;7292419;19;19926;-66
2024/01/17 00:10:42;;;;;;;;;;;;;;;4.29;66.22;99488.28;7301251;19;19919;-67
2024/01/17 00:13:09;;;;;;;;;;;;;;;4.27;65.87;99478.00;7297957;19;19925;-66
2024/01/17 00:15:36;;;;;;;;;;;;;;;4.30;66.09;99485.53;7293012;19;19964;-67
2024/01/17 00:18:03;;;;;;;;;;;;;;;4.27;65.37;99480.59;7287490;19;19923;-66
2024/01/17 00:20:30;;;;;;;;;;;;;;;4.28;66.02;99468.41;7303390;19;19919;-68
2024/01/17 00:22:57;;;;;;;;;;;;;;;4.24;65.94;99472.28;7300897;19;19919;-67
2024/01/17 00:25:25;;;;;;;;;;;;;;;4.25;65.89;99466.13;7283203;19;19954;-68
2024/01/17 00:27:51;;;;;;;;;;;;;;;4.25;66.21;99453.94;7298660;19;19930;-67
2024/01/17 00:30:19;;;;;;;;;;;;;;;4.28;66.05;99452.81;7293541;19;20616;-66
2024/01/17 00:32:46;;;;;;;;;;;;;;;4.35;65.49;99445.22;7281659;19;19918;-67
2024/01/17 00:35:13;;;;;;;;;;;;;;;4.32;65.51;99439.34;7301301;19;19946;-67
2024/01/17 00:37:40;;;;;;;;;;;;;;;4.33;65.96;99445.38;7296258;19;19915;-67
2024/01/17 00:40:08;;;;;;;;;;;;;;;4.32;65.65;99435.91;7282800;19;19919;-67
2024/01/17 00:42:35;;;;;;;;;;;;;;;4.37;65.96;99438.09;7291827;19;20510;-66
2024/01/17 00:45:03;;;;;;;;;;;;;;;4.37;66.05;99432.91;7304122;19;20784;-67
2024/01/17 00:47:30;;;;;;;;;;;;;;;4.35;65.72;99430.44;7289252;19;19923;-67
2024/01/17 00:49:58;;;;;;;;;;;;;;;4.34;65.48;99427.97;7305919;19;19998;-68
2024/01/17 00:52:25;;;;;;;;;;;;;;;4.35;65.76;99424.41;7301073;19;19918;-66
2024/01/17 00:54:52;;;;;;;;;;;;;;;4.38;66.12;99418.88;7297046;19;20494;-67
2024/01/17 00:57:19;;;;;;;;;;;;;;;4.38;65.80;99414.50;7288930;19;19921;-66
2024/01/17 00:59:46;;;;;;;;;;;;;;;4.39;66.14;99410.94;7290596;19;19948;-66
2024/01/17 01:02:13;;;;;;;;;;;;;;;4.40;65.73;99401.34;7294335;19;19922;-67
2024/01/17 01:04:40;;;;;;;;;;;;;;;4.45;65.73;99397.34;7304508;19;19918;-66
2024/01/17 01:07:07;;;;;;;;;;;;;;;4.51;66.06;99394.13;7298521;19;19923;-67
2024/01/17 01:09:33;;;;;;;;;;;;;;;4.56;65.41;99386.69;7283354;19;19986;-67
2024/01/17 01:12:00;;;;;;;;;;;;;;;4.52;65.62;99374.13;7295119;19;19926;-66
2024/01/17 01:14:27;;;;;;;;;;;;;;;4.54;65.99;99367.78;7297507;19;20245;-66
2024/01/17 01:16:54;;;;;;;;;;;;;;;4.59;65.34;99372.53;7292968;19;19923;-67
2024/01/17 01:19:21;;;;;;;;;;;;;;;4.59;65.57;99364.72;7291677;19;19915;-66
2024/01/17 01:21:48;;;;;;;;;;;;;;;4.61;64.85;99361.00;7302612;19;22433;-66
2024/01/17 01:24:15;;;;;;;;;;;;;;;4.54;67.00;99349.56;7295090;19;20240;-68
2024/01/17 01:26:41;;;;;;;;;;;;;;;4.53;67.19;99355.72;7297007;19;19918;-66
2024/01/17 01:29:10;;;;;;;;;;;;;;;4.51;66.83;99343.84;7292484;19;21549;-67
2024/01/17 01:31:37;;;;;;;;;;;;;;;4.56;66.27;99341.59;7314774;19;19923;-66
2024/01/17 01:34:04;;;;;;;;;;;;;;;4.53;66.01;99347.91;7307577;19;19926;-66
2024/01/17 01:36:31;;;;;;;;;;;;;;;4.51;65.36;99339.47;7300325;19;19922;-66
2024/01/17 01:38:59;;;;;;;;;;;;;;;4.54;65.10;99336.53;7285713;19;19929;-66
2024/01/17 01:41:27;;;;;;;;;;;;;;;4.50;65.90;99335.22;7294292;19;20292;-66
2024/01/17 01:43:54;;;;;;;;;;;;;;;4.50;67.40;99329.19;7300298;19;19919;-66
2024/01/17 01:46:25;;;;;;;;;;;;;;;4.53;67.64;99324.47;7286157;19;20081;-66
2024/01/17 01:48:52;;;;;;;;;;;;;;;4.56;67.96;99308.56;7290722;19;19914;-65
2024/01/17 01:51:20;;;;;;;;;;;;;;;4.53;67.16;99306.25;7286410;19;20804;-68
2024/01/17 01:53:48;;;;;;;;;;;;;;;4.52;67.43;99296.78;7291445;19;19923;-67
2024/01/17 01:56:17;;;;;;;;;;;;;;;4.53;67.51;99282.00;7298078;19;19927;-66
2024/01/17 01:58:45;;;;;;;;;;;;;;;4.51;67.75;99279.56;7294327;19;20590;-66
2024/01/17 02:01:14;;;;;;;;;;;;;;;4.48;68.40;99279.84;7293944;19;19963;-68
2024/01/17 02:03:43;;;;;;;;;;;;;;;4.50;68.24;99275.31;7284226;19;19918;-67
2024/01/17 02:06:13;;;;;;;;;;;;;;;4.45;67.69;99268.94;7299195;19;19918;-67
2024/01/17 02:08:40;;;;;;;;;;;;;;;4.44;68.31;99270.72;7298797;19;19962;-66
2024/01/17 02:11:07;;;;;;;;;;;;;;;4.43;69.53;99270.88;7312584;19;20917;-68
2024/01/17 02:13:35;;;;;;;;;;;;;;;4.42;69.27;99257.03;7309488;19;20581;-66
2024/01/17 02:16:02;;;;;;;;;;;;;;;4.42;68.22;99257.03;7302861;19;19923;-68
2024/01/17 02:18:29;;;;;;;;;;;;;;;4.42;67.64;99248.44;7300666;19;19922;-66
2024/01/17 02:20:56;;;;;;;;;;;;;;;4.43;67.57;99242.22;7310887;19;19951;-66
2024/01/17 02:23:27;;;;;;;;;;;;;;;4.43;67.36;99235.22;7294025;19;19919;-67
2024/01/17 02:25:55;;;;;;;;;;;;;;;4.41;67.86;99237.19;7288645;19;21195;-67
2024/01/17 02:28:23;;;;;;;;;;;;;;;4.38;68.36;99231.44;7292136;19;20009;-67
2024/01/17 02:30:50;;;;;;;;;;;;;;;4.37;69.24;99225.44;7304765;19;19919;-66
2024/01/17 02:33:19;;;;;;;;;;;;;;;4.38;67.96;99226.25;7276680;19;19929;-67
2024/01/17 02:35:46;;;;;;;;;;;;;;;4.36;67.51;99217.78;7282074;19;20761;-66
2024/01/17 02:38:14;;;;;;;;;;;;;;;4.30;67.34;99212.22;7301405;19;20689;-67
2024/01/17 02:40:41;;;;;;;;;;;;;;;4.30;68.72;99203.59;7286370;19;19941;-66
2024/01/17 02:43:07;;;;;;;;;;;;;;;4.27;69.15;99201.28;7276929;19;20103;-66
2024/01/17 02:45:34;;;;;;;;;;;;;;;4.22;68.37;99193.13;7280569;19;19926;-66
2024/01/17 02:48:02;;;;;;;;;;;;;;;4.17;67.91;99193.59;7286427;19;19998;-67
2024/01/17 02:50:29;;;;;;;;;;;;;;;4.13;68.08;99183.63;7284764;19;20661;-67
2024/01/17 02:52:56;;;;;;;;;;;;;;;4.15;68.08;99189.50;7286082;19;19926;-67
2024/01/17 02:55:23;;;;;;;;;;;;;;;4.19;68.61;99183.03;7278019;19;20312;-67
2024/01/17 02:57:51;;;;;;;;;;;;;;;4.20;68.33;99179.47;7295175;19;19919;-66
2024/01/17 03:00:19;;;;;;;;;;;;;;;4.24;68.49;99172.97;7299392;19;21595;-66
2024/01/17 03:02:46;;;;;;;;;;;;;;;4.24;67.46;99160.78;7290320;19;20651;-66
2024/01/17 03:05:13;;;;;;;;;;;;;;;4.25;67.88;99165.03;7294942;19;19934;-67
2024/01/17 03:07:40;;;;;;;;;;;;;;;4.22;67.88;99164.50;7288364;19;19998;-66
2024/01/17 03:10:09;;;;;;;;;;;;;;;4.12;67.90;99154.19;7306753;19;20378;-67
2024/01/17 03:12:35;;;;;;;;;;;;;;;4.08;67.47;99133.84;7304169;19;19923;-66
2024/01/17 03:15:02;;;;;;;;;;;;;;;4.06;67.42;99141.00;7287465;19;20025;-66
2024/01/17 03:17:30;;;;;;;;;;;;;;;4.05;67.78;99131.56;7295049;19;19919;-66
2024/01/17 03:19:57;;;;;;;;;;;;;;;4.05;67.35;99123.75;7296401;19;20347;-66
2024/01/17 03:22:24;;;;;;;;;;;;;;;4.03;67.41;99117.88;7285318;19;19919;-66
2024/01/17 03:24:51;;;;;;;;;;;;;;;4.06;68.37;99117.59;7287693;19;19923;-65
2024/01/17 03:27:18;;;;;;;;;;;;;;;4.12;69.29;99104.75;7285928;19;20010;-66
2024/01/17 03:29:45;;;;;;;;;;;;;;;4.18;69.12;99095.50;7293689;19;19929;-66
2024/01/17 03:32:12;;;;;;;;;;;;;;;4.18;69.15;99085.09;7311622;19;21310;-65
2024/01/17 03:34:39;;;;;;;;;;;;;;;4.20;69.67;99081.38;7303231;19;19931;-67
2024/01/17 03:37:05;;;;;;;;;;;;;;;4.24;69.09;99079.28;7290795;19;19931;-66
2024/01/17 03:39:34;;;;;;;;;;;;;;;4.25;68.54;99080.91;7298083;19;20025;-66
2024/01/17 03:42:01;;;;;;;;;;;;;;;4.27;69.12;99071.16;7292070;19;19922;-66
2024/01/17 03:44:28;;;;;;;;;;;;;;;4.17;68.76;99065.25;7297340;19;19927;-67
2024/01/17 03:46:55;;;;;;;;;;;;;;;4.14;68.24;99068.19;7310041;19;19953;-66
2024/01/17 03:49:21;;;;;;;;;;;;;;;4.13;68.36;99058.72;7311445;19;20461;-66
2024/01/17 03:51:49;;;;;;;;;;;;;;;4.06;68.13;99048.16;7296293;19;19937;-66
2024/01/17 03:54:15;;;;;;;;;;;;;;;4.04;68.34;99044.88;7299126;19;20365;-66
2024/01/17 03:56:42;;;;;;;;;;;;;;;4.06;68.38;99039.53;7297072;19;20902;-66
2024/01/17 03:59:09;;;;;;;;;;;;;;;4.07;68.33;99038.53;7291486;19;20615;-67
2024/01/17 04:01:43;;;;;;;;;;;;;;;4.10;67.95;99035.63;7289583;19;20326;-67
2024/01/17 04:04:10;;;;;;;;;;;;;;;4.14;68.42;99027.34;7293794;19;19959;-67
2024/01/17 04:06:38;;;;;;;;;;;;;;;4.18;67.81;99031.28;7295048;19;20571;-67
2024/01/17 04:09:08;;;;;;;;;;;;;;;4.19;67.75;99019.91;7295271;19;20017;-65
2024/01/17 04:11:40;;;;;;;;;;;;;;;4.20;68.10;99023.31;7304456;19;20263;-66
2024/01/17 04:14:07;;;;;;;;;;;;;;;4.21;68.23;99014.53;7299612;19;19922;-66
2024/01/17 04:16:39;;;;;;;;;;;;;;;4.25;68.58;99005.44;7299668;19;20516;-66
2024/01/17 04:19:13;;;;;;;;;;;;;;;4.29;68.90;99004.16;7299766;19;20616;-66
2024/01/17 04:21:41;;;;;;;;;;;;;;;4.29;68.05;98996.34;7287180;19;20208;-67
2024/01/17 04:24:08;;;;;;;;;;;;;;;4.33;67.84;99002.84;7300454;19;19922;-66
2024/01/17 04:26:35;;;;;;;;;;;;;;;4.35;67.19;98987.91;7291896;19;19927;-66
2024/01/17 04:29:02;;;;;;;;;;;;;;;4.35;67.90;98993.09;7286262;19;19926;-66
2024/01/17 04:31:29;;;;;;;;;;;;;;;4.37;68.51;98993.75;7281754;19;20624;-66
2024/01/17 04:33:57;;;;;;;;;;;;;;;4.34;68.46;98988.88;7280331;19;19925;-68
2024/01/17 04:36:27;;;;;;;;;;;;;;;4.30;67.92;98977.97;7295339;19;19925;-67
2024/01/17 04:39:00;;;;;;;;;;;;;;;4.32;68.04;98978.59;7278859;19;19925;-66
2024/01/17 04:41:27;;;;;;;;;;;;;;;4.29;67.93;98968.53;7306692;19;21187;-66
2024/01/17 04:43:55;;;;;;;;;;;;;;;4.26;67.59;98968.03;7284865;19;20014;-66
2024/01/17 04:46:22;;;;;;;;;;;;;;;4.26;67.38;98975.84;7289057;19;21097;-67
2024/01/17 04:48:49;;;;;;;;;;;;;;;4.24;67.52;98967.38;7290784;19;19925;-66
2024/01/17 04:51:16;;;;;;;;;;;;;;;4.24;67.51;98955.19;7294620;19;19926;-66
2024/01/17 04:53:44;;;;;;;;;;;;;;;4.22;67.73;98958.91;7293333;19;19914;-65
2024/01/17 04:56:13;;;;;;;;;;;;;;;4.24;68.06;98956.97;7301092;19;20225;-66
2024/01/17 04:58:40;;;;;;;;;;;;;;;4.25;68.30;98953.38;7310795;19;19918;-66
2024/01/17 05:01:08;;;;;;;;;;;;;;;4.28;69.18;98940.03;7315892;19;20179;-65
2024/01/17 05:03:35;;;;;;;;;;;;;;;4.29;70.90;98934.69;7288723;19;20762;-66
2024/01/17 05:06:03;;;;;;;;;;;;;;;4.33;69.87;98929.97;7299988;19;19933;-66
2024/01/17 05:08:30;;;;;;;;;;;;;;;4.37;69.81;98931.28;7291594;19;19941;-67
2024/01/17 05:10:56;;;;;;;;;;;;;;;4.38;70.30;98929.50;7293991;19;19926;-67
2024/01/17 05:13:23;;;;;;;;;;;;;;;4.35;70.18;98925.44;7293255;19;19927;-66
2024/01/17 05:15:50;;;;;;;;;;;;;;;4.30;69.98;98930.31;7276167;19;19937;-67
2024/01/17 05:18:17;;;;;;;;;;;;;;;4.29;69.64;98926.88;7284498;19;19930;-66
2024/01/17 05:20:45;;;;;;;;;;;;;;;4.30;69.77;98912.91;7289171;19;19923;-67
2024/01/17 05:23:12;;;;;;;;;;;;;;;4.30;69.66;98906.88;7291430;19;19978;-66
2024/01/17 05:25:41;;;;;;;;;;;;;;;4.36;69.79;98915.84;7289325;19;19926;-66
2024/01/17 05:28:08;;;;;;;;;;;;;;;4.35;70.58;98903.78;7285420;19;20249;-67
2024/01/17 05:30:35;;;;;;;;;;;;;;;4.29;70.10;98897.44;7280892;19;19911;-67
2024/01/17 05:33:02;;;;;;;;;;;;;;;4.28;69.59;98888.81;7289864;19;19961;-66
2024/01/17 05:35:33;;;;;;;;;;;;;;;4.26;69.46;98888.19;7289721;19;21163;-66
2024/01/17 05:38:01;;;;;;;;;;;;;;;4.27;69.58;98887.19;7286459;19;19926;-65
2024/01/17 05:40:28;;;;;;;;;;;;;;;4.36;69.82;98879.41;7282906;19;19927;-66
2024/01/17 05:42:55;;;;;;;;;;;;;;;4.41;71.39;98875.34;7305199;19;19931;-66
2024/01/17 05:45:22;;;;;;;;;;;;;;;4.45;71.32;98876.63;7294470;19;19918;-67
2024/01/17 05:47:49;;;;;;;;;;;;;;;4.43;70.63;98875.97;7284217;19;19923;-66
2024/01/17 05:50:16;;;;;;;;;;;;;;;4.43;69.90;98877.75;7286914;19;20213;-67
2024/01/17 05:52:48;;;;;;;;;;;;;;;4.49;70.32;98877.13;7294580;19;20229;-67
2024/01/17 05:55:15;;;;;;;;;;;;;;;4.54;70.39;98867.84;7280237;19;21738;-67
2024/01/17 05:57:43;;;;;;;;;;;;;;;4.54;69.54;98867.84;7282864;19;20005;-65
2024/01/17 06:00:10;;;;;;;;;;;;;;;4.56;69.70;98852.88;7281838;19;19922;-68
2024/01/17 06:02:39;;;;;;;;;;;;;;;4.55;69.33;98853.84;7291857;19;19922;-67
2024/01/17 06:05:07;;;;;;;;;;;;;;;4.59;69.33;98849.94;7296876;19;21017;-66
2024/01/17 06:07:34;;;;;;;;;;;;;;;4.61;69.50;98836.75;7273835;19;22664;-67
2024/01/17 06:10:01;;;;;;;;;;;;;;;4.58;69.62;98829.25;7281663;19;20421;-66
2024/01/17 06:12:29;;;;;;;;;;;;;;;4.63;69.55;98829.56;7292435;19;19930;-66
2024/01/17 06:14:58;;;;;;;;;;;;;;;4.64;69.62;98831.22;7293956;19;19922;-66
2024/01/17 06:17:26;;;;;;;;;;;;;;;4.63;69.90;98837.38;7277402;19;20031;-66
2024/01/17 06:19:53;;;;;;;;;;;;;;;4.65;70.07;98825.03;7274693;19;20010;-66
2024/01/17 06:22:20;;;;;;;;;;;;;;;4.68;70.42;98824.69;7288323;19;19937;-67
2024/01/17 06:24:47;;;;;;;;;;;;;;;4.66;70.00;98817.06;7298418;19;19921;-66
2024/01/17 06:27:14;;;;;;;;;;;;;;;4.73;70.33;98822.41;7293524;19;19922;-66
2024/01/17 06:29:44;;;;;;;;;;;;;;;4.78;70.54;98814.09;7291027;19;21791;-67
2024/01/17 06:32:12;;;;;;;;;;;;;;;4.79;70.57;98818.31;7290044;19;21292;-66
2024/01/17 06:34:43;;;;;;;;;;;;;;;4.77;70.99;98815.09;7300006;19;19923;-67
2024/01/17 06:37:10;;;;;;;;;;;;;;;4.74;70.67;98811.00;7291938;19;19918;-66
2024/01/17 06:39:37;;;;;;;;;;;;;;;4.70;70.86;98804.50;7294257;19;20154;-67
2024/01/17 06:42:17;;;;;;;;;;;;;;;4.70;70.92;98805.34;7304210;19;19927;-67
2024/01/17 06:44:45;;;;;;;;;;;;;;;4.69;70.99;98798.50;7306492;19;20894;-66
2024/01/17 06:47:12;;;;;;;;;;;;;;;4.68;71.07;98789.03;7296894;19;21012;-68
2024/01/17 06:49:41;;;;;;;;;;;;;;;4.70;71.53;98796.69;7297866;19;19919;-67
2024/01/17 06:52:08;;;;;;;;;;;;;;;4.70;71.62;98792.31;7291751;19;20366;-66
2024/01/17 06:54:35;;;;;;;;;;;;;;;4.73;71.85;98785.94;7290961;19;20522;-66
2024/01/17 06:57:02;;;;;;;;;;;;;;;4.75;71.97;98786.59;7302143;19;20999;-67
2024/01/17 06:59:29;;;;;;;;;;;;;;;4.82;73.95;98787.56;7279035;19;19929;-66
2024/01/17 07:01:56;;;;;;;;;;;;;;;4.81;75.26;98774.69;7299872;19;19929;-66
2024/01/17 07:04:24;;;;;;;;;;;;;;;5.20;87.94;98774.72;7304886;19;20307;-66
2024/01/17 07:06:51;;;;;;;;;;;;;;;5.26;87.92;98781.88;7285828;19;20928;-66
2024/01/17 07:09:18;;;;;;;;;;;;;;;5.14;79.52;98771.81;7280424;19;19933;-66
2024/01/17 07:11:45;;;;;;;;;;;;;;;5.10;75.51;98769.72;7293595;19;21170;-66
2024/01/17 07:14:11;;;;;;;;;;;;;;;5.02;73.92;98773.19;7304713;19;19941;-67
2024/01/17 07:16:39;;;;;;;;;;;;;;;4.99;73.55;98778.72;7293524;19;19923;-66
2024/01/17 07:19:05;;;;;;;;;;;;;;;4.94;73.43;98769.75;7289624;19;21124;-69
2024/01/17 07:21:32;;;;;;;;;;;;;;;4.93;73.67;98761.13;7290807;19;20711;-67
2024/01/17 07:23:59;;;;;;;;;;;;;;;4.91;73.54;98760.50;7291807;19;19918;-66
2024/01/17 07:26:26;;;;;;;;;;;;;;;4.93;73.57;98768.13;7279235;19;20237;-66
2024/01/17 07:28:53;;;;;;;;;;;;;;;4.92;73.55;98764.75;7286601;19;20645;-66
2024/01/17 07:31:20;;;;;;;;;;;;;;;4.92;73.44;98751.72;7296086;19;19955;-66
2024/01/17 07:33:47;;;;;;;;;;;;;;;4.90;72.97;98747.66;7303853;19;19929;-66
2024/01/17 07:36:14;;;;;;;;;;;;;;;4.88;72.98;98755.63;7305339;19;20637;-67
2024/01/17 07:38:41;;;;;;;;;;;;;;;4.83;73.45;98746.69;7298358;19;19942;-67
2024/01/17 07:41:09;;;;;;;;;;;;;;;4.80;73.82;98749.63;7302920;19;20220;-67
2024/01/17 07:43:36;;;;;;;;;;;;;;;4.80;74.21;98747.03;7289336;19;19926;-66
2024/01/17 07:46:03;;;;;;;;;;;;;;;4.77;74.35;98742.97;7289315;19;19941;-67
2024/01/17 07:48:29;;;;;;;;;;;;;;;4.78;74.52;98748.97;7273888;19;19922;-66
2024/01/17 07:50:57;;;;;;;;;;;;;;;4.77;74.00;98755.19;7279168;19;19921;-67
2024/01/17 07:53:26;;;;;;;;;;;;;;;4.76;74.18;98753.56;7299537;19;19934;-67
2024/01/17 07:55:55;;;;;;;;;;;;;;;4.72;74.32;98747.88;7291438;19;19952;-66
2024/01/17 07:58:22;;;;;;;;;;;;;;;4.75;74.62;98752.75;7291091;19;19923;-66
2024/01/17 08:00:49;;;;;;;;;;;;;;;4.70;74.79;98748.03;7293864;19;19953;-66
2024/01/17 08:03:16;;;;;;;;;;;;;;;4.70;74.60;98749.81;7299372;19;19951;-66
2024/01/17 08:05:44;;;;;;;;;;;;;;;4.72;74.89;98746.06;7292238;19;19995;-67
2024/01/17 08:08:12;;;;;;;;;;;;;;;4.76;74.42;98750.94;7292585;19;19918;-66
2024/01/17 08:10:39;;;;;;;;;;;;;;;4.74;74.80;98751.09;7311011;19;19922;-66
2024/01/17 08:13:06;;;;;;;;;;;;;;;4.73;74.92;98736.47;7310902;19;19945;-65
2024/01/17 08:15:37;;;;;;;;;;;;;;;4.76;74.65;98735.31;7306938;19;19955;-71
2024/01/17 08:18:09;;;;;;;;;;;;;;;4.73;74.81;98734.66;7288011;19;19930;-66
2024/01/17 08:20:38;;;;;;;;;;;;;;;4.76;74.96;98735.31;7304611;19;19925;-66
2024/01/17 08:23:05;;;;;;;;;;;;;;;4.81;74.76;98728.63;7310465;19;20002;-65
2024/01/17 08:25:36;;;;;;;;;;;;;;;4.82;74.59;98722.44;7290647;19;19922;-66
2024/01/17 08:28:04;;;;;;;;;;;;;;;4.83;74.89;98728.44;7277103;19;20898;-66
2024/01/17 08:30:31;;;;;;;;;;;;;;;4.85;74.51;98724.69;7285900;19;19930;-66
2024/01/17 08:32:58;;;;;;;;;;;;;;;4.88;74.49;98718.31;7290152;19;19933;-67
2024/01/17 08:35:25;;;;;;;;;;;;;;;4.90;74.56;98719.81;7287745;19;20705;-68
2024/01/17 08:37:52;;;;;;;;;;;;;;;4.93;74.21;98718.63;7302106;19;19962;-68
2024/01/17 08:40:19;;;;;;;;;;;;;;;4.91;74.87;98712.81;7290751;19;20401;-65
2024/01/17 08:42:46;;;;;;;;;;;;;;;4.89;73.93;98707.75;7297892;19;20113;-67
2024/01/17 08:45:19;;;;;;;;;;;;;;;4.90;74.25;98706.78;7311162;19;19964;-65
2024/01/17 08:47:48;;;;;;;;;;;;;;;4.87;74.16;98701.91;7296546;19;19918;-68
2024/01/17 08:50:16;;;;;;;;;;;;;;;4.86;74.03;98694.25;7285678;19;20905;-69
2024/01/17 08:52:43;;;;;;;;;;;;;;;4.86;74.36;98686.44;7275438;19;19930;-70
2024/01/17 08:55:10;;;;;;;;;;;;;;;4.86;74.49;98689.06;7290423;19;19927;-68
2024/01/17 08:57:38;;;;;;;;;;;;;;;4.86;74.50;98682.06;7277211;19;19926;-68
2024/01/17 09:00:06;;;;;;;;;;;;;;;4.88;74.28;98685.28;7287783;19;21190;-68
2024/01/17 09:02:35;;;;;;;;;;;;;;;4.94;74.82;98691.59;7290963;19;19918;-68
2024/01/17 09:05:07;;;;;;;;;;;;;;;4.99;74.17;98703.16;7287915;19;19922;-69
2024/01/17 09:07:43;;;;;;;;;;;;;;;5.03;73.69;98694.00;7283918;19;20556;-70
2024/01/17 09:10:13;;;;;;;;;;;;;;;5.04;73.49;98684.38;7296766;19;19967;-70
2024/01/17 09:12:44;;;;;;;;;;;;;;;5.08;75.25;98683.88;7289077;19;20252;-69
2024/01/17 09:15:18;;;;;;;;;;;;;;;5.09;74.00;98682.09;7280071;19;21799;-68
2024/01/17 09:17:49;;;;;;;;;;;;;;;5.09;73.14;98676.88;7286608;19;20518;-69
2024/01/17 09:20:21;;;;;;;;;;;;;;;5.09;72.52;98662.06;7289399;19;19958;-69
2024/01/17 09:22:49;;;;;;;;;;;;;;;5.13;73.38;98665.94;7299126;19;19983;-69
2024/01/17 09:25:17;;;;;;;;;;;;;;;5.14;73.24;98666.75;7293849;19;20188;-67
2024/01/17 09:27:44;;;;;;;;;;;;;;;5.09;72.22;98669.88;7294167;19;19982;-70
2024/01/17 09:30:11;;;;;;;;;;;;;;;5.04;72.55;98663.53;7291873;19;19926;-70
2024/01/17 09:32:47;;;;;;;;;;;;;;;4.98;72.60;98659.00;7279120;19;20440;-70
2024/01/17 09:35:16;;;;;;;;;;;;;;;4.95;73.26;98654.16;7281779;19;19915;-70
2024/01/17 09:37:44;;;;;;;;;;;;;;;5.05;73.71;98658.16;7289675;19;20883;-69
2024/01/17 09:40:13;;;;;;;;;;;;;;;5.09;74.21;98653.41;7279690;19;19934;-69
2024/01/17 09:42:41;;;;;;;;;;;;;;;5.19;73.68;98651.41;7291652;19;20027;-70
2024/01/17 09:45:14;;;;;;;;;;;;;;;5.23;72.44;98649.28;7288273;19;20570;-68
2024/01/17 09:47:43;;;;;;;;;;;;;;;5.26;72.97;98648.94;7296795;19;20264;-69
2024/01/17 09:50:11;;;;;;;;;;;;;;;5.28;72.55;98650.38;7296271;19;20673;-69
2024/01/17 09:52:41;;;;;;;;;;;;;;;5.26;72.04;98649.75;7291507;19;19989;-69
2024/01/17 09:55:15;;;;;;;;;;;;;;;5.31;71.84;98644.81;7294281;19;19930;-69
2024/01/17 09:57:49;;;;;;;;;;;;;;;5.32;72.34;98649.06;7284094;19;19925;-68
2024/01/17 10:00:18;;;;;;;;;;;;;;;5.29;70.30;98643.34;7289733;19;19919;-69
2024/01/17 10:02:47;;;;;;;;;;;;;;;5.09;70.92;98643.81;7290051;19;20390;-70
2024/01/17 10:05:26;;;;;;;;;;;;;;;5.02;71.65;98647.28;7299742;19;19934;-69
2024/01/17 10:07:56;;;;;;;;;;;;;;;4.89;71.94;98644.41;7288828;19;20628;-69
2024/01/17 10:10:24;;;;;;;;;;;;;;;4.81;71.83;98647.06;7290786;19;19960;-70
2024/01/17 10:12:54;;;;;;;;;;;;;;;4.86;72.45;98632.56;7290179;19;19923;-68
2024/01/17 10:15:36;;;;;;;;;;;;;;;4.93;73.95;98636.09;7295653;19;21175;-68
2024/01/17 10:18:05;;;;;;;;;;;;;;;5.08;73.11;98636.16;7283620;19;20164;-68
2024/01/17 10:20:34;;;;;;;;;;;;;;;5.06;71.46;98648.56;7284390;19;21799;-70
2024/01/17 10:23:04;;;;;;;;;;;;;;;5.12;72.45;98642.66;7295944;19;19926;-69
2024/01/17 10:25:44;;;;;;;;;;;;;;;5.24;73.26;98641.28;7297455;19;19919;-69
2024/01/17 10:28:16;;;;;;;;;;;;;;;5.32;72.23;98637.81;7286189;19;19922;-69
2024/01/17 10:30:44;;;;;;;;;;;;;;;5.36;70.38;98636.47;7287644;19;20803;-69
2024/01/17 10:33:12;;;;;;;;;;;;;;;5.40;71.39;98629.91;7292711;19;19923;-69
2024/01/17 10:35:45;;;;;;;;;;;;;;;5.48;71.73;98632.47;7292658;19;19922;-70
2024/01/17 10:38:21;;;;;;;;;;;;;;;5.48;69.79;98635.91;7286164;19;19914;-69
2024/01/17 10:41:08;;;;;;;;;;;;;;;5.55;68.55;98636.00;7290379;19;20643;-69
2024/01/17 10:43:56;;;;;;;;;;;;;;;5.45;66.88;98643.25;7282280;19;21153;-70
2024/01/17 10:46:26;;;;;;;;;;;;;;;5.45;67.08;98636.22;7292470;19;20383;-68
2024/01/17 10:48:58;;;;;;;;;;;;;;;5.46;69.11;98624.00;7296569;19;19918;-70
2024/01/17 10:51:25;;;;;;;;;;;;;;;5.45;69.37;98633.63;7286670;19;20190;-68
2024/01/17 10:53:54;;;;;;;;;;;;;;;5.51;69.63;98621.69;7289746;19;20271;-70
2024/01/17 10:56:23;;;;;;;;;;;;;;;5.61;67.49;98624.88;7271669;19;20538;-69
2024/01/17 10:58:55;;;;;;;;;;;;;;;5.46;66.73;98621.41;7276510;19;19927;-69
2024/01/17 11:01:30;;;;;;;;;;;;;;;5.51;65.38;98626.91;7288235;19;19919;-69
2024/01/17 11:04:06;;;;;;;;;;;;;;;5.50;66.39;98622.66;7282752;19;20026;-70
2024/01/17 11:06:35;;;;;;;;;;;;;;;5.51;66.48;98634.72;7288147;19;19931;-69
2024/01/17 11:09:06;;;;;;;;;;;;;;;5.57;65.40;98621.00;7298000;19;19926;-69
2024/01/17 11:11:35;;;;;;;;;;;;;;;5.53;64.90;98617.94;7287601;19;19922;-69
2024/01/17 11:14:06;;;;;;;;;;;;;;;5.48;65.46;98630.69;7289965;19;19927;-70
2024/01/17 11:16:34;;;;;;;;;;;;;;;5.42;66.37;98630.56;7301700;19;19926;-68
2024/01/17 11:19:03;;;;;;;;;;;;;;;5.47;67.27;98623.03;7301046;19;19919;-70
2024/01/17 11:21:35;;;;;;;;;;;;;;;5.53;67.19;98627.56;7275264;19;20058;-68
2024/01/17 11:24:24;;;;;;;;;;;;;;;5.58;66.56;98620.81;7280812;19;19922;-70
2024/01/17 11:27:15;;;;;;;;;;;;;;;5.50;66.05;98614.84;7302308;19;19978;-68
2024/01/17 11:29:52;;;;;;;;;;;;;;;5.51;66.83;98612.06;7298408;19;21204;-69
2024/01/17 11:32:47;;;;;;;;;;;;;;;5.53;67.61;98607.50;7305775;19;21044;-69
2024/01/17 11:35:36;;;;;;;;;;;;;;;5.44;68.65;98612.94;7312662;19;20114;-69
2024/01/17 11:38:07;;;;;;;;;;;;;;;5.42;67.53;98617.53;7282667;19;20019;-69
2024/01/17 11:40:39;;;;;;;;;;;;;;;5.21;68.66;98612.97;7293493;19;19919;-69
2024/01/17 11:43:09;;;;;;;;;;;;;;;5.16;69.59;98615.28;7294655;19;19934;-69
2024/01/17 11:45:50;;;;;;;;;;;;;;;5.11;70.16;98604.56;7295883;19;21228;-69
2024/01/17 11:48:33;;;;;;;;;;;;;;;5.14;71.90;98614.63;7299397;19;20018;-68
2024/01/17 11:51:14;;;;;;;;;;;;;;;5.14;71.02;98597.19;7293854;19;19949;-69
2024/01/17 11:53:50;;;;;;;;;;;;;;;5.16;71.60;98602.25;7294019;19;19915;-68
2024/01/17 11:56:25;;;;;;;;;;;;;;;5.21;72.36;98597.31;7300501;19;19924;-69
2024/01/17 11:58:57;;;;;;;;;;;;;;;5.24;72.14;98593.53;7305025;19;19930;-69
2024/01/17 12:01:31;;;;;;;;;;;;;;;5.32;71.99;98598.72;7286174;19;19937;-69
2024/01/17 12:04:01;;;;;;;;;;;;;;;5.27;72.84;98599.22;7283584;19;20390;-68
2024/01/17 12:06:30;;;;;;;;;;;;;;;5.33;72.63;98592.50;7302820;19;19925;-68
2024/01/17 12:08:57;;;;;;;;;;;;;;;5.28;73.76;98590.44;7285912;19;19923;-69
2024/01/17 12:11:24;;;;;;;;;;;;;;;5.30;74.15;98591.06;7295885;19;19926;-69
2024/01/17 12:13:52;;;;;;;;;;;;;;;5.30;73.94;98582.41;7305178;19;19933;-70
2024/01/17 12:16:21;;;;;;;;;;;;;;;5.27;73.71;98581.00;7289637;19;19925;-69
2024/01/17 12:18:58;;;;;;;;;;;;;;;5.27;74.25;98573.16;7282789;19;19998;-68
2024/01/17 12:21:26;;;;;;;;;;;;;;;5.31;73.57;98578.84;7304441;19;19923;-69
2024/01/17 12:23:55;;;;;;;;;;;;;;;5.33;73.94;98584.69;7301044;19;20880;-70
2024/01/17 12:26:23;;;;;;;;;;;;;;;5.39;75.26;98571.75;7301980;19;20277;-70
2024/01/17 12:28:49;;;;;;;;;;;;;;;5.43;74.20;98572.22;7303061;19;19927;-69
2024/01/17 12:31:16;;;;;;;;;;;;;;;5.39;73.24;98574.34;7292811;19;20898;-69
2024/01/17 12:33:44;;;;;;;;;;;;;;;5.32;73.69;98575.25;7299711;19;19997;-69
2024/01/17 12:36:18;;;;;;;;;;;;;;;5.27;73.72;98572.34;7298121;19;21126;-68
2024/01/17 12:38:45;;;;;;;;;;;;;;;5.16;74.16;98579.59;7282028;19;19929;-69
2024/01/17 12:41:12;;;;;;;;;;;;;;;5.13;75.32;98571.28;7276998;19;19967;-67
2024/01/17 12:43:39;;;;;;;;;;;;;;;5.19;74.92;98565.41;7312444;19;19922;-67
2024/01/17 12:46:06;;;;;;;;;;;;;;;5.22;75.19;98559.84;7290065;19;19998;-68
2024/01/17 12:48:34;;;;;;;;;;;;;;;5.32;74.49;98564.81;7301482;19;19927;-68
2024/01/17 12:51:02;;;;;;;;;;;;;;;5.31;75.09;98568.41;7298430;19;20009;-69
2024/01/17 12:53:29;;;;;;;;;;;;;;;5.42;75.23;98558.38;7301030;19;19982;-68
2024/01/17 12:56:00;;;;;;;;;;;;;;;5.55;76.05;98557.75;7300693;19;19956;-68
2024/01/17 12:58:31;;;;;;;;;;;;;;;5.55;75.54;98558.56;7303997;19;19994;-67
2024/01/17 13:01:00;;;;;;;;;;;;;;;5.56;73.31;98557.59;7297102;19;19919;-67
2024/01/17 13:03:27;;;;;;;;;;;;;;;5.51;74.87;98561.72;7302113;19;20319;-68
2024/01/17 13:06:00;;;;;;;;;;;;;;;5.49;74.48;98564.50;7308851;19;20091;-68